ADDS METAR Data INFO
IDs: Format: Raw Decoded Include TAF

Data at: 1715 UTC 23 Oct 2017

PAKV 231653Z AUTO 00000KT 10SM UP OVC031 M13/M16 A2984 RMK AO2 UPB14 SLP109 P0000 T11331156 TSNO
PAKV 231633Z AUTO 00000KT 10SM UP OVC030 M14/M16 A2984 RMK AO2 UPB14 P0000 T11391161 TSNO
PAKV 231553Z AUTO 00000KT 10SM OVC028 M14/M17 A2984 RMK AO2 UPE38 SLP111 P0000 T11441172 TSNO
PAKV 231521Z AUTO 00000KT 10SM UP OVC029 M14/M17 A2983 RMK AO2 P0000 T11441167 TSNO
PAKV 231453Z AUTO 23003KT 10SM UP BKN031 BKN095 M15/M18 A2983 RMK AO2 UPB1357E02B28SNE1357B02E28 SLP108 P0000 60000 T11501178 53006 TSNO
PAKV 231353Z AUTO 00000KT 4SM -SN BR BKN060 OVC075 M14/M17 A2982 RMK AO2 UPB17E28SNE17B28 SLP105 P0000 T11441167 TSNO
PAKV 231341Z AUTO 00000KT 2SM -SN SCT055 BKN070 OVC090 M14/M17 A2983 RMK AO2 UPB17E28SNE17B28 P0000 T11441172 TSNO
PAKV 231253Z AUTO 00000KT 9SM -SN FEW055 OVC095 M16/M18 A2982 RMK AO2 UPE49SNB49 SLP105 P0000 T11561183 TSNO
PAKV 231153Z AUTO 00000KT 10SM UP SCT050 BKN100 M17/M19 A2982 RMK AO2 UPB11 SLP102 P0000 60000 I6000 T11671189 11161 21206 51014 TSNO
PAKV 231053Z AUTO 22003KT 10SM OVC090 M16/M18 A2981 RMK AO2 UPB01E48 SLP098 P0000 T11611183 TSNO
PAKV 230953Z AUTO 00000KT 10SM OVC085 M16/M19 A2979 RMK AO2 SLP092 T11611189 TSNO
PAKV 230853Z AUTO 23003KT 10SM OVC055 M17/M20 A2978 RMK AO2 SLP089 I3000 T11721200 411001228 53016 TSNO
PAKV 230753Z AUTO 23004KT 10SM SCT070 M19/M22 A2976 RMK AO2 SLP083 I1000 T11891217 TSNO
PAKV 230653Z AUTO 24004KT 10SM CLR M19/M22 A2974 RMK AO2 SLP077 T11941217 TSNO
PAKV 230553Z AUTO 22003KT 10SM CLR M19/M22 A2973 RMK AO2 UPB24E33 SLP073 P0000 60000 T11941222 11100 21194 51019 TSNO
PAKV 230453Z AUTO 00000KT 10SM CLR M19/M22 A2971 RMK AO2 UPE07 SLP068 P0000 T11891217 TSNO
PAKV 230353Z AUTO 00000KT 10SM UP CLR M16/M18 A2970 RMK AO2 UPE26B44 SLP063 P0000 T11611183 TSNO
PAKV 230253Z AUTO 11003KT 10SM UP CLR M13/M16 A2967 RMK AO2 SLP054 P0000 60000 T11281156 53014 TSNO
PAKV 230153Z AUTO 09004KT 10SM UP CLR M11/M15 A2965 RMK AO2 SLP048 P0000 T11111150 TSNO
PAKV 230053Z AUTO 00000KT 10SM UP CLR M10/M14 A2964 RMK AO2 SLP044 P0000 T11001139 TSNO
PAKV 222353Z AUTO 04006KT 10SM UP CLR M10/M14 A2963 RMK AO2 SLP040 P0000 60000 T11001144 11100 21200 51008 TSNO
PAKV 222253Z AUTO 05003KT 10SM UP FEW120 M11/M14 A2963 RMK AO2 SLP040 P0000 T11111139 TSNO
PAKV 222228Z AUTO 03004KT 10SM UP FEW005 M12/M14 A2963 RMK AO2 P0000 T11171139 TSNO
PAKV 222215Z AUTO 02004KT 8SM UP BKN005 M12/M14 A2962 RMK AO2 P0000 T11221144 TSNO
PAKV 222201Z AUTO 00000KT 2 1/2SM UP BR BKN005 M13/M15 A2963 RMK AO2 VIS 1 3/4V4 P0000 T11281150 TSNO
PAKV 222153Z AUTO 00000KT 5SM UP BR BKN004 M13/M15 A2962 RMK AO2 SLP038 P0000 T11331150 TSNO
PAKV 222110Z AUTO 24003KT 10SM UP SCT003 BKN120 M16/M17 A2961 RMK AO2 P0000 T11561172 TSNO
PAKV 222101Z AUTO 23004KT 7SM UP BKN003 M16/M17 A2961 RMK AO2 P0000 T11561172 TSNO
PAKV 222053Z AUTO 24004KT 2SM UP BR BKN003 M16/M18 A2961 RMK AO2 VIS 1V5 UPB1956SNB37E48 SLP032 P0000 60000 T11611178 51015 TSNO
PAKV 222028Z AUTO 24004KT 1/4SM UP FZFG OVC003 M17/M18 A2960 RMK AO2 UPB1956 P0000 T11671183 TSNO
PAKV 222011Z AUTO 23003KT 1 1/2SM UP BR OVC003 M17/M19 A2960 RMK AO2 UPB1956 P0000 T11721194 TSNO
PAKV 221953Z AUTO 22003KT 10SM OVC003 M18/M21 A2960 RMK AO2 SLP029 T11831206 TSNO
PAKV 221931Z AUTO 24004KT 8SM OVC003 M19/M21 A2959 RMK AO2 T11891211 TSNO
PAKV 221853Z AUTO 23003KT 10SM OVC004 M19/M22 A2958 RMK AO2 SLP023 T11941222 TSNO
PAKV 221753Z AUTO 20003KT 10SM OVC004 M20/M23 A2956 RMK AO2 SLP017 T12001228 11194 21228 53018 TSNO
PAKV 221739Z AUTO 00000KT 10SM OVC004 M20/M22 A2956 RMK AO2 T12001222 TSNO
PAKV 221705Z AUTO 23003KT 10SM OVC003 M19/M22 A2955 RMK AO2 T11941217 TSNO
PAKV 221653Z AUTO 00000KT 10SM OVC004 M19/M22 A2954 RMK AO2 SLP010 T11941222 TSNO
PAKV 221637Z AUTO 24003KT 10SM OVC004 M19/M22 A2954 RMK AO2 T11941217 TSNO
PAKV 221553Z AUTO 22003KT 10SM OVC005 M19/M22 A2953 RMK AO2 SLP005 T11941222 TSNO
PAKV 221453Z AUTO 21004KT 10SM OVC004 M20/M23 A2951 RMK AO2 SLP999 T12001228 53009 TSNO
PAKV 221426Z AUTO 22004KT 10SM BKN005 M22/M25 A2951 RMK AO2 T12221250 TSNO
PAKV 221416Z AUTO 00000KT 10SM SCT005 M22/M25 A2950 RMK AO2 T12221250 TSNO
PAKV 221353Z AUTO 00000KT 10SM CLR M22/M24 A2950 RMK AO2 SLP995 T12171244 TSNO
PAKV 221253Z AUTO 23003KT 10SM CLR M22/M25 A2949 RMK AO2 SLP992 T12221250 TSNO
PAKV 221153Z AUTO 23004KT 10SM CLR M20/M23 A2948 RMK AO2 SLP989 60000 T12001228 11156 21211 53008 TSNO
PAKV 221053Z AUTO 22003KT 10SM CLR M19/M22 A2947 RMK AO2 SLP985 T11941217 TSNO
PAKV 220953Z AUTO 22004KT 10SM CLR M18/M21 A2947 RMK AO2 SLP984 T11831211 TSNO
PAKV 220853Z AUTO 23004KT 10SM CLR M19/M22 A2946 RMK AO2 SLP981 60000 T11941222 410441200 51004 TSNO
PAKV 220753Z AUTO 00000KT 10SM CLR M19/M21 A2946 RMK AO2 SLP980 T11891211 TSNO
PAKV 220653Z AUTO 00000KT 10SM CLR M18/M21 A2946 RMK AO2 UPE48 SLP980 P0000 T11781206 TSNO
PAKV 220553Z AUTO 00000KT 10SM UP CLR M16/M18 A2945 RMK AO2 SLP977 P0000 60000 I1000 I6000 T11561178 11072 21161 53008 TSNO